PWSweather.com
Personal Weather Stations
Station Observations
CW4114
Near Downtown, Rogers City, MI 49779

Near DowntownRogers City, MI 49779

Lat: 45.417443, Lon: -83.810642

Elevation: 605

Station Type: Davis Vantage Pro2 w/Solar

Latest ConditionsUpdated 5:43:37 AM EST Wednesday, Feb 10, 2016
Currently Today's Max Today's Min Today's Average
Temperature 10.4°F-12.0°C 18.3°F-7.6°C 10.4°F-12.0°C 14.3°F-9.8°C
Dew Point 8.2°F-13.2°C 16.7°F-8.5°C 8.2°F-13.2°C 12.3°F-10.9°C
Winds 5.6 mph N9.0 kmh N 8.1 mph N13.0 kmh N - 5.3 mph 8.5 kmh
Wind Gusts 11.6 mph18.7 kmh 18.1 mph29.1 kmh - -
Humidity 91% 93% 91% 92%
Pressure 29.76 in1007.8 mb 29.76 in1007.8 mb 29.69 in1005.4 mb -
Precipitation - 0.01 in0.3 mm - -
Hour Temp Dew Point Humidity Winds Wind Gusts Pressure Precip Precip Rate Daily Precip Total
05:43 AM 10.4°F-12.0°C 8.2°F-13.2°C 91% 5.6 mph N9.0 kmh N 11.6 mph18.7 kmh 29.76 in1007.8 mb 0.00 in0.0 mm 0.00 in0.0 mm 0.01 in0.3 mm
05:38 AM 10.6°F-11.9°C 8.4°F-13.1°C 91% 6.3 mph N10.1 kmh N 14.8 mph23.8 kmh 29.75 in1007.5 mb 0.00 in0.0 mm 0.00 in0.0 mm 0.01 in0.3 mm
05:33 AM 10.6°F-11.9°C 8.4°F-13.1°C 91% 5.6 mph NNW9.0 kmh NNW 14.8 mph23.8 kmh 29.75 in1007.5 mb 0.00 in0.0 mm 0.00 in0.0 mm 0.01 in0.3 mm
05:28 AM 10.8°F-11.8°C 8.6°F-13.0°C 91% 5.1 mph NNE8.2 kmh NNE 13.9 mph22.4 kmh 29.75 in1007.5 mb 0.00 in0.0 mm 0.00 in0.0 mm 0.01 in0.3 mm
05:23 AM 11.1°F-11.6°C 9.3°F-12.6°C 92% 5.8 mph NNW9.3 kmh NNW 11.6 mph18.7 kmh 29.75 in1007.5 mb 0.00 in0.0 mm 0.00 in0.0 mm 0.01 in0.3 mm
05:18 AM 11.1°F-11.6°C 9.0°F-12.8°C 91% 6.0 mph N9.7 kmh N 14.8 mph23.8 kmh 29.74 in1007.1 mb 0.00 in0.0 mm 0.00 in0.0 mm 0.01 in0.3 mm
05:13 AM 11.5°F-11.4°C 9.3°F-12.6°C 91% 4.7 mph N7.6 kmh N 10.5 mph16.9 kmh 29.74 in1007.1 mb 0.00 in0.0 mm 0.00 in0.0 mm 0.01 in0.3 mm
05:08 AM 11.3°F-11.5°C 9.1°F-12.7°C 91% 5.1 mph N8.2 kmh N 11.6 mph18.7 kmh 29.74 in1007.1 mb 0.00 in0.0 mm 0.00 in0.0 mm 0.01 in0.3 mm
05:03 AM 11.5°F-11.4°C 9.3°F-12.6°C 91% 3.6 mph NNW5.8 kmh NNW 10.5 mph16.9 kmh 29.74 in1007.1 mb 0.00 in0.0 mm 0.00 in0.0 mm 0.01 in0.3 mm
04:58 AM 11.7°F-11.3°C 9.5°F-12.5°C 91% 6.7 mph N10.8 kmh N 11.6 mph18.7 kmh 29.74 in1007.1 mb 0.00 in0.0 mm 0.00 in0.0 mm 0.01 in0.3 mm
04:53 AM 11.7°F-11.3°C 9.5°F-12.5°C 91% 5.4 mph N8.7 kmh N 11.6 mph18.7 kmh 29.73 in1006.8 mb 0.00 in0.0 mm 0.00 in0.0 mm 0.01 in0.3 mm
04:48 AM 11.8°F-11.2°C 10.0°F-12.2°C 92% 5.1 mph NNW8.2 kmh NNW 10.5 mph16.9 kmh 29.73 in1006.8 mb 0.00 in0.0 mm 0.00 in0.0 mm 0.01 in0.3 mm
04:43 AM 12.0°F-11.1°C 10.2°F-12.1°C 92% 5.6 mph N9.0 kmh N 12.8 mph20.6 kmh 29.73 in1006.8 mb 0.00 in0.0 mm 0.00 in0.0 mm 0.01 in0.3 mm
04:38 AM 12.2°F-11.0°C 10.4°F-12.0°C 92% 5.4 mph NW8.7 kmh NW 14.8 mph23.8 kmh 29.73 in1006.8 mb 0.00 in0.0 mm 0.00 in0.0 mm 0.01 in0.3 mm
04:33 AM 12.4°F-10.9°C 10.6°F-11.9°C 92% 4.9 mph N7.9 kmh N 11.6 mph18.7 kmh 29.73 in1006.8 mb 0.00 in0.0 mm 0.00 in0.0 mm 0.01 in0.3 mm
04:28 AM 12.0°F-11.1°C 10.2°F-12.1°C 92% 5.4 mph NW8.7 kmh NW 11.6 mph18.7 kmh 29.73 in1006.8 mb 0.00 in0.0 mm 0.00 in0.0 mm 0.01 in0.3 mm
04:23 AM 12.0°F-11.1°C 9.9°F-12.3°C 91% 5.4 mph NNW8.7 kmh NNW 13.9 mph22.4 kmh 29.73 in1006.8 mb 0.00 in0.0 mm 0.00 in0.0 mm 0.01 in0.3 mm
04:18 AM 12.0°F-11.1°C 9.9°F-12.3°C 91% 4.5 mph NW7.2 kmh NW 11.6 mph18.7 kmh 29.73 in1006.8 mb 0.00 in0.0 mm 0.00 in0.0 mm 0.01 in0.3 mm
04:13 AM 12.4°F-10.9°C 10.2°F-12.1°C 91% 5.8 mph N9.3 kmh N 11.6 mph18.7 kmh 29.73 in1006.8 mb 0.00 in0.0 mm 0.00 in0.0 mm 0.01 in0.3 mm
04:08 AM 12.6°F-10.8°C 10.4°F-12.0°C 91% 4.9 mph N7.9 kmh N 10.5 mph16.9 kmh 29.73 in1006.8 mb 0.00 in0.0 mm 0.00 in0.0 mm 0.01 in0.3 mm
04:03 AM 12.7°F-10.7°C 10.6°F-11.9°C 91% 3.8 mph WNW6.1 kmh WNW 10.5 mph16.9 kmh 29.73 in1006.8 mb 0.00 in0.0 mm 0.00 in0.0 mm 0.01 in0.3 mm
03:58 AM 12.9°F-10.6°C 11.1°F-11.6°C 92% 6.7 mph NW10.8 kmh NW 13.9 mph22.4 kmh 29.73 in1006.8 mb 0.00 in0.0 mm 0.00 in0.0 mm 0.01 in0.3 mm
03:53 AM 13.3°F-10.4°C 11.5°F-11.4°C 92% 5.1 mph N8.2 kmh N 12.8 mph20.6 kmh 29.73 in1006.8 mb 0.00 in0.0 mm 0.00 in0.0 mm 0.01 in0.3 mm
03:48 AM 13.5°F-10.3°C 11.7°F-11.3°C 92% 5.1 mph NNW8.2 kmh NNW 10.5 mph16.9 kmh 29.72 in1006.4 mb 0.00 in0.0 mm 0.00 in0.0 mm 0.01 in0.3 mm
03:43 AM 13.5°F-10.3°C 11.7°F-11.3°C 92% 4.3 mph NNE6.9 kmh NNE 9.6 mph15.4 kmh 29.72 in1006.4 mb 0.00 in0.0 mm 0.00 in0.0 mm 0.01 in0.3 mm
03:38 AM 13.5°F-10.3°C 11.7°F-11.3°C 92% 5.1 mph N8.2 kmh N 11.6 mph18.7 kmh 29.72 in1006.4 mb 0.00 in0.0 mm 0.00 in0.0 mm 0.01 in0.3 mm
03:33 AM 13.5°F-10.3°C 11.7°F-11.3°C 92% 4.3 mph NW6.9 kmh NW 10.5 mph16.9 kmh 29.72 in1006.4 mb 0.00 in0.0 mm 0.00 in0.0 mm 0.01 in0.3 mm
03:28 AM 13.6°F-10.2°C 11.8°F-11.2°C 92% 5.1 mph N8.2 kmh N -- 29.72 in1006.4 mb 0.00 in0.0 mm 0.00 in0.0 mm 0.01 in0.3 mm
03:23 AM 13.5°F-10.3°C 11.3°F-11.5°C 91% 4.3 mph W6.9 kmh W 10.5 mph16.9 kmh 29.72 in1006.4 mb 0.00 in0.0 mm 0.00 in0.0 mm 0.01 in0.3 mm
03:18 AM 13.6°F-10.2°C 11.5°F-11.4°C 91% 5.1 mph NNW8.2 kmh NNW 10.5 mph16.9 kmh 29.72 in1006.4 mb 0.00 in0.0 mm 0.00 in0.0 mm 0.01 in0.3 mm
03:13 AM 13.8°F-10.1°C 11.7°F-11.3°C 91% 4.9 mph NNE7.9 kmh NNE 11.6 mph18.7 kmh 29.72 in1006.4 mb 0.00 in0.0 mm 0.00 in0.0 mm 0.01 in0.3 mm
03:08 AM 14.2°F-9.9°C 12.0°F-11.1°C 91% 6.0 mph NW9.7 kmh NW 10.5 mph16.9 kmh 29.72 in1006.4 mb 0.00 in0.0 mm 0.00 in0.0 mm 0.01 in0.3 mm
03:03 AM 14.2°F-9.9°C 12.0°F-11.1°C 91% 5.4 mph NNW8.7 kmh NNW -- 29.72 in1006.4 mb 0.00 in0.0 mm 0.00 in0.0 mm 0.01 in0.3 mm
02:58 AM 14.4°F-9.8°C 12.2°F-11.0°C 91% 5.4 mph NNW8.7 kmh NNW 12.8 mph20.6 kmh 29.71 in1006.1 mb 0.00 in0.0 mm 0.00 in0.0 mm 0.01 in0.3 mm
02:53 AM 14.5°F-9.7°C 12.4°F-10.9°C 91% 4.9 mph NW7.9 kmh NW 13.9 mph22.4 kmh 29.72 in1006.4 mb 0.00 in0.0 mm 0.00 in0.0 mm 0.01 in0.3 mm
02:48 AM 14.7°F-9.6°C 12.6°F-10.8°C 91% 4.9 mph NNE7.9 kmh NNE 10.5 mph16.9 kmh 29.71 in1006.1 mb 0.00 in0.0 mm 0.00 in0.0 mm 0.01 in0.3 mm
02:43 AM 14.7°F-9.6°C 12.6°F-10.8°C 91% 5.1 mph NW8.2 kmh NW 11.6 mph18.7 kmh 29.71 in1006.1 mb 0.00 in0.0 mm 0.00 in0.0 mm 0.01 in0.3 mm
02:38 AM 14.9°F-9.5°C 12.7°F-10.7°C 91% 4.7 mph N7.6 kmh N 10.5 mph16.9 kmh 29.71 in1006.1 mb 0.00 in0.0 mm 0.00 in0.0 mm 0.01 in0.3 mm
02:33 AM 14.9°F-9.5°C 12.7°F-10.7°C 91% 4.3 mph N6.9 kmh N 9.6 mph15.4 kmh 29.71 in1006.1 mb 0.00 in0.0 mm 0.00 in0.0 mm 0.01 in0.3 mm
02:28 AM 14.9°F-9.5°C 12.7°F-10.7°C 91% 6.0 mph N9.7 kmh N 10.5 mph16.9 kmh 29.71 in1006.1 mb 0.00 in0.0 mm 0.00 in0.0 mm 0.01 in0.3 mm
02:23 AM 15.1°F-9.4°C 12.9°F-10.6°C 91% 4.9 mph N7.9 kmh N 12.8 mph20.6 kmh 29.71 in1006.1 mb 0.00 in0.0 mm 0.00 in0.0 mm 0.01 in0.3 mm
02:18 AM 15.1°F-9.4°C 13.1°F-10.5°C 92% 6.0 mph NNE9.7 kmh NNE 10.5 mph16.9 kmh 29.71 in1006.1 mb 0.00 in0.0 mm 0.00 in0.0 mm 0.01 in0.3 mm
02:13 AM 15.1°F-9.4°C 12.9°F-10.6°C 91% 3.6 mph NNE5.8 kmh NNE 10.5 mph16.9 kmh 29.71 in1006.1 mb 0.00 in0.0 mm 0.00 in0.0 mm 0.01 in0.3 mm
02:07 AM 15.1°F-9.4°C 13.1°F-10.5°C 92% 4.9 mph N7.9 kmh N 10.5 mph16.9 kmh 29.71 in1006.1 mb 0.00 in0.0 mm 0.00 in0.0 mm 0.01 in0.3 mm
02:02 AM 15.1°F-9.4°C 12.9°F-10.6°C 91% 5.6 mph NW9.0 kmh NW 11.6 mph18.7 kmh 29.71 in1006.1 mb 0.00 in0.0 mm 0.00 in0.0 mm 0.01 in0.3 mm
01:57 AM 15.1°F-9.4°C 12.9°F-10.6°C 91% 6.3 mph NNE10.1 kmh NNE 12.8 mph20.6 kmh 29.70 in1005.8 mb 0.00 in0.0 mm 0.00 in0.0 mm 0.01 in0.3 mm
01:52 AM 15.4°F-9.2°C 13.5°F-10.3°C 92% 5.4 mph N8.7 kmh N 15.9 mph25.6 kmh 29.70 in1005.8 mb 0.00 in0.0 mm 0.00 in0.0 mm 0.01 in0.3 mm
01:47 AM 15.4°F-9.2°C 13.3°F-10.4°C 91% 6.5 mph NE10.5 kmh NE 13.9 mph22.4 kmh 29.70 in1005.8 mb 0.00 in0.0 mm 0.00 in0.0 mm 0.01 in0.3 mm
01:42 AM 15.4°F-9.2°C 13.3°F-10.4°C 91% 4.0 mph NNW6.4 kmh NNW 8.5 mph13.7 kmh 29.70 in1005.8 mb 0.00 in0.0 mm 0.00 in0.0 mm 0.01 in0.3 mm
01:37 AM 15.8°F-9.0°C 13.6°F-10.2°C 91% 4.3 mph NNW6.9 kmh NNW 11.6 mph18.7 kmh 29.70 in1005.8 mb 0.00 in0.0 mm 0.00 in0.0 mm 0.01 in0.3 mm
01:32 AM 16.0°F-8.9°C 14.0°F-10.0°C 92% 2.7 mph NE4.3 kmh NE 9.6 mph15.4 kmh 29.70 in1005.8 mb 0.00 in0.0 mm 0.00 in0.0 mm 0.01 in0.3 mm
01:27 AM 16.2°F-8.8°C 14.2°F-9.9°C 92% 5.1 mph N8.2 kmh N 12.8 mph20.6 kmh 29.70 in1005.8 mb 0.01 in0.3 mm 0.00 in0.0 mm 0.01 in0.3 mm
01:22 AM 16.2°F-8.8°C 14.2°F-9.9°C 92% 6.9 mph NW11.1 kmh NW 14.8 mph23.8 kmh 29.70 in1005.8 mb 0.01 in0.3 mm 0.00 in0.0 mm 0.01 in0.3 mm
01:17 AM 16.3°F-8.7°C 14.4°F-9.8°C 92% 8.1 mph N13.0 kmh N 15.9 mph25.6 kmh 29.70 in1005.8 mb 0.01 in0.3 mm 0.00 in0.0 mm 0.01 in0.3 mm
01:12 AM 16.5°F-8.6°C 14.5°F-9.7°C 92% 7.2 mph NNE11.6 kmh NNE 12.8 mph20.6 kmh 29.70 in1005.8 mb 0.01 in0.3 mm 0.00 in0.0 mm 0.01 in0.3 mm
01:07 AM 16.7°F-8.5°C 14.7°F-9.6°C 92% 6.3 mph N10.1 kmh N 12.8 mph20.6 kmh 29.70 in1005.8 mb 0.01 in0.3 mm 0.00 in0.0 mm 0.01 in0.3 mm
01:02 AM 16.7°F-8.5°C 14.7°F-9.6°C 92% 5.1 mph NNE8.2 kmh NNE 13.9 mph22.4 kmh 29.70 in1005.8 mb 0.01 in0.3 mm 0.00 in0.0 mm 0.01 in0.3 mm
12:57 AM 16.7°F-8.5°C 14.7°F-9.6°C 92% 6.3 mph NE10.1 kmh NE 10.5 mph16.9 kmh 29.70 in1005.8 mb 0.01 in0.3 mm 0.00 in0.0 mm 0.01 in0.3 mm
12:52 AM 16.9°F-8.4°C 14.9°F-9.5°C 92% 4.7 mph NW7.6 kmh NW 11.6 mph18.7 kmh 29.70 in1005.8 mb 0.01 in0.3 mm 0.00 in0.0 mm 0.01 in0.3 mm
12:47 AM 17.1°F-8.3°C 15.1°F-9.4°C 92% 5.4 mph NE8.7 kmh NE 18.1 mph29.1 kmh 29.70 in1005.8 mb 0.01 in0.3 mm 0.00 in0.0 mm 0.01 in0.3 mm
12:42 AM 17.2°F-8.2°C 15.6°F-9.1°C 93% 3.6 mph NE5.8 kmh NE 10.5 mph16.9 kmh 29.70 in1005.8 mb 0.01 in0.3 mm 0.00 in0.0 mm 0.01 in0.3 mm
12:37 AM 17.2°F-8.2°C 15.3°F-9.3°C 92% 5.6 mph NNE9.0 kmh NNE 14.8 mph23.8 kmh 29.69 in1005.4 mb 0.01 in0.3 mm 0.00 in0.0 mm 0.01 in0.3 mm
12:32 AM 17.2°F-8.2°C 15.3°F-9.3°C 92% 4.9 mph N7.9 kmh N 9.6 mph15.4 kmh 29.70 in1005.8 mb 0.01 in0.3 mm 0.12 in3.0 mm 0.01 in0.3 mm
12:27 AM 17.4°F-8.1°C 15.4°F-9.2°C 92% 4.5 mph N7.2 kmh N 12.8 mph20.6 kmh 29.69 in1005.4 mb 0.00 in0.0 mm 0.00 in0.0 mm 0.00 in0.0 mm
12:22 AM 17.8°F-7.9°C 15.8°F-9.0°C 92% 6.0 mph N9.7 kmh N 12.8 mph20.6 kmh 29.70 in1005.8 mb 0.00 in0.0 mm 0.00 in0.0 mm 0.00 in0.0 mm
12:17 AM 18.0°F-7.8°C 16.3°F-8.7°C 93% 4.9 mph NW7.9 kmh NW 12.8 mph20.6 kmh 29.69 in1005.4 mb 0.00 in0.0 mm 0.00 in0.0 mm 0.00 in0.0 mm
12:12 AM 18.1°F-7.7°C 16.5°F-8.6°C 93% 5.6 mph N9.0 kmh N 13.9 mph22.4 kmh 29.69 in1005.4 mb 0.00 in0.0 mm 0.00 in0.0 mm 0.00 in0.0 mm
12:07 AM 18.3°F-7.6°C 16.7°F-8.5°C 93% 4.9 mph N7.9 kmh N 12.8 mph20.6 kmh 29.69 in1005.4 mb 0.00 in0.0 mm 0.00 in0.0 mm 0.00 in0.0 mm
12:02 AM 18.3°F-7.6°C 16.7°F-8.5°C 93% 6.7 mph NNE10.8 kmh NNE 13.9 mph22.4 kmh 29.69 in1005.4 mb 0.00 in0.0 mm 0.00 in0.0 mm 0.00 in0.0 mm